Time;durP1;ratioP1;P1;durP2;ratioP2;P2;SDS_P1;SDS_P2;PMS_P1;PMS_P2;Temp;Humidity;BMP_temperature;BMP_pressure;BME280_temperature;BME280_humidity;BME280_pressure;Samples;Min_cycle;Max_cycle;Signal;HPM_P1;HPM_P2
2022/06/19 00:00:33;;;;;;;12.90;9.75;;;;;;;;;;4988596;28;20501;-71
2022/06/19 00:02:59;;;;;;;12.07;8.98;;;;;;;;;;4984276;28;20022;-71
2022/06/19 00:05:24;;;;;;;10.30;9.20;;;;;;;;;;4987615;28;20033;-71
2022/06/19 00:07:50;;;;;;;8.93;8.02;;;;;;;;;;4995458;28;20092;-72
2022/06/19 00:10:16;;;;;;;11.48;8.75;;;;;;;;;;4995237;28;20026;-71
2022/06/19 00:12:42;;;;;;;10.27;8.98;;;;;;;;;;4996949;28;20109;-70
2022/06/19 00:15:09;;;;;;;9.20;8.27;;;;;;;;;;4996047;28;20030;-71
2022/06/19 00:17:35;;;;;;;12.35;8.40;;;;;;;;;;4994638;28;20033;-72
2022/06/19 00:20:02;;;;;;;8.27;6.38;;;;;;;;;;4995591;28;20034;-71
2022/06/19 00:22:28;;;;;;;8.55;6.40;;;;;;;;;;4995359;28;20030;-73
2022/06/19 00:24:54;;;;;;;8.05;6.38;;;;;;;;;;4995657;28;20042;-70
2022/06/19 00:27:19;;;;;;;7.10;6.40;;;;;;;;;;4995275;28;20065;-70
2022/06/19 00:29:45;;;;;;;7.60;6.18;;;;;;;;;;4995622;28;20034;-71
2022/06/19 00:32:13;;;;;;;8.93;7.65;;;;;;;;;;4995526;28;20034;-72
2022/06/19 00:34:39;;;;;;;12.15;7.88;;;;;;;;;;4994975;28;20464;-74
2022/06/19 00:37:05;;;;;;;8.77;7.88;;;;;;;;;;4994686;28;20031;-71
2022/06/19 00:39:32;;;;;;;7.53;6.60;;;;;;;;;;4993959;28;20038;-74
2022/06/19 00:41:59;;;;;;;13.10;6.95;;;;;;;;;;4976498;28;20046;-74
2022/06/19 00:44:26;;;;;;;7.35;6.53;;;;;;;;;;4975707;28;20057;-73
2022/06/19 00:46:52;;;;;;;9.80;6.25;;;;;;;;;;4978838;28;20022;-72
2022/06/19 00:49:25;;;;;;;7.70;6.60;;;;;;;;;;4994044;28;20321;-72
2022/06/19 00:52:20;;;;;;;9.10;6.85;;;;;;;;;;4992957;28;20104;-72
2022/06/19 00:54:51;;;;;;;11.45;6.75;;;;;;;;;;4995752;28;20563;-74
2022/06/19 00:57:19;;;;;;;10.50;7.28;;;;;;;;;;4993344;28;20125;-71
2022/06/19 00:59:51;;;;;;;8.52;7.63;;;;;;;;;;4993862;28;20026;-74
2022/06/19 01:02:17;;;;;;;9.10;7.40;;;;;;;;;;4990966;28;20031;-73
2022/06/19 01:04:48;;;;;;;9.40;7.70;;;;;;;;;;4984380;28;20061;-73
2022/06/19 01:07:15;;;;;;;10.48;6.90;;;;;;;;;;4975613;28;20031;-74
2022/06/19 01:09:40;;;;;;;10.02;6.75;;;;;;;;;;4978604;28;20034;-72
2022/06/19 01:12:08;;;;;;;7.70;6.25;;;;;;;;;;4997124;28;20535;-72
2022/06/19 01:14:35;;;;;;;7.80;6.20;;;;;;;;;;4994639;28;20473;-72
2022/06/19 01:17:02;;;;;;;7.53;6.00;;;;;;;;;;4994588;28;20034;-74
2022/06/19 01:19:34;;;;;;;8.35;5.55;;;;;;;;;;5014295;28;20393;-74
2022/06/19 01:22:09;;;;;;;9.15;5.20;;;;;;;;;;5014654;28;20171;-74
2022/06/19 01:24:51;;;;;;;5.32;4.80;;;;;;;;;;5004194;28;20041;-73
2022/06/19 01:30:05;;;;;;;4.90;4.50;;;;;;;;;;4994381;28;20069;-74
2022/06/19 01:32:35;;;;;;;5.93;4.43;;;;;;;;;;4994921;28;20045;-73
2022/06/19 01:35:01;;;;;;;5.40;4.47;;;;;;;;;;4994660;28;20497;-72
2022/06/19 01:37:30;;;;;;;7.05;4.72;;;;;;;;;;4994662;28;20088;-71
2022/06/19 01:40:00;;;;;;;5.88;4.57;;;;;;;;;;4991256;28;20117;-75
2022/06/19 01:42:30;;;;;;;5.10;4.32;;;;;;;;;;4994480;28;20043;-72
2022/06/19 01:44:57;;;;;;;5.20;4.70;;;;;;;;;;4992784;28;20037;-75
2022/06/19 01:47:29;;;;;;;6.60;5.03;;;;;;;;;;4993955;28;20044;-72
2022/06/19 01:49:57;;;;;;;5.43;4.70;;;;;;;;;;4994154;28;20031;-71
2022/06/19 01:52:25;;;;;;;9.00;4.47;;;;;;;;;;4993868;28;20058;-71
2022/06/19 01:55:09;;;;;;;5.55;4.43;;;;;;;;;;4992302;28;20397;-75
2022/06/19 01:57:39;;;;;;;6.32;4.85;;;;;;;;;;4993329;28;20520;-74
2022/06/19 02:00:10;;;;;;;8.05;5.03;;;;;;;;;;4992894;28;20531;-72
2022/06/19 02:02:40;;;;;;;7.63;5.65;;;;;;;;;;4994690;28;20046;-71
2022/06/19 02:05:06;;;;;;;6.85;4.93;;;;;;;;;;4991823;28;20093;-72
2022/06/19 02:07:32;;;;;;;6.88;5.18;;;;;;;;;;4992114;28;20054;-73
2022/06/19 02:10:00;;;;;;;7.53;5.40;;;;;;;;;;4991450;28;20400;-73
2022/06/19 02:12:31;;;;;;;6.18;5.57;;;;;;;;;;4992185;28;20032;-72
2022/06/19 02:14:57;;;;;;;9.70;6.00;;;;;;;;;;4991667;28;20408;-72
2022/06/19 02:17:30;;;;;;;7.78;6.00;;;;;;;;;;4991564;28;20018;-71
2022/06/19 02:19:56;;;;;;;10.02;5.25;;;;;;;;;;4992742;28;20121;-72
2022/06/19 02:22:22;;;;;;;6.97;5.20;;;;;;;;;;4992303;28;20509;-76
2022/06/19 02:24:48;;;;;;;7.07;5.40;;;;;;;;;;4992460;28;20065;-74
2022/06/19 02:27:15;;;;;;;7.25;5.30;;;;;;;;;;4993624;28;20027;-70
2022/06/19 02:29:43;;;;;;;6.53;5.20;;;;;;;;;;4992320;28;20077;-76
2022/06/19 02:32:30;;;;;;;5.68;5.05;;;;;;;;;;4993164;28;20062;-74
2022/06/19 02:34:56;;;;;;;7.68;5.07;;;;;;;;;;4993386;28;20039;-73
2022/06/19 02:37:25;;;;;;;5.50;4.93;;;;;;;;;;4992025;28;20037;-72
2022/06/19 02:40:22;;;;;;;6.00;4.88;;;;;;;;;;4991600;28;20117;-74
2022/06/19 02:42:48;;;;;;;7.13;5.18;;;;;;;;;;4990011;28;20550;-75
2022/06/19 02:45:16;;;;;;;5.80;4.55;;;;;;;;;;4991168;28;20109;-73
2022/06/19 02:47:43;;;;;;;5.85;4.88;;;;;;;;;;4991944;28;20435;-75
2022/06/19 02:50:13;;;;;;;5.72;4.78;;;;;;;;;;4991236;28;20088;-72
2022/06/19 02:52:38;;;;;;;6.07;4.60;;;;;;;;;;4991304;28;20049;-75
2022/06/19 02:55:05;;;;;;;6.22;4.90;;;;;;;;;;4991671;28;20030;-72
2022/06/19 02:57:32;;;;;;;7.60;4.80;;;;;;;;;;4991492;28;20076;-73
2022/06/19 02:59:58;;;;;;;6.03;4.68;;;;;;;;;;4990542;28;20030;-72
2022/06/19 03:02:25;;;;;;;7.07;5.30;;;;;;;;;;4991025;28;20034;-73
2022/06/19 03:04:58;;;;;;;5.78;5.20;;;;;;;;;;4991197;28;20029;-72
2022/06/19 03:07:25;;;;;;;6.93;4.90;;;;;;;;;;4991583;28;20113;-70
2022/06/19 03:09:51;;;;;;;7.22;5.10;;;;;;;;;;4991222;28;20038;-74
2022/06/19 03:12:17;;;;;;;6.20;5.38;;;;;;;;;;4991426;28;20037;-72
2022/06/19 03:14:44;;;;;;;7.53;5.30;;;;;;;;;;4991440;28;20076;-73
2022/06/19 03:17:19;;;;;;;6.57;4.68;;;;;;;;;;4991256;28;20076;-76
2022/06/19 03:19:45;;;;;;;9.05;4.70;;;;;;;;;;4990964;28;20034;-75
2022/06/19 03:22:12;;;;;;;13.40;5.32;;;;;;;;;;4991286;28;20029;-75
2022/06/19 03:24:39;;;;;;;9.85;5.60;;;;;;;;;;4990102;28;20038;-71
2022/06/19 03:27:06;;;;;;;8.85;5.10;;;;;;;;;;4991011;28;20125;-71
2022/06/19 03:29:32;;;;;;;7.80;4.63;;;;;;;;;;4990550;28;20396;-73
2022/06/19 03:31:58;;;;;;;8.68;4.60;;;;;;;;;;4991541;28;20026;-72
2022/06/19 03:34:25;;;;;;;8.38;4.80;;;;;;;;;;4990983;28;20042;-70
2022/06/19 03:36:51;;;;;;;9.07;4.43;;;;;;;;;;4990154;28;20042;-74
2022/06/19 03:39:17;;;;;;;7.47;4.57;;;;;;;;;;4990020;28;20073;-74
2022/06/19 03:41:43;;;;;;;7.15;4.28;;;;;;;;;;4990354;28;20572;-71
2022/06/19 03:44:10;;;;;;;5.22;4.45;;;;;;;;;;4990092;28;20034;-73
2022/06/19 03:46:36;;;;;;;6.72;3.95;;;;;;;;;;4982166;28;20031;-73
2022/06/19 03:49:02;;;;;;;6.78;4.50;;;;;;;;;;4991048;28;20066;-71
2022/06/19 03:51:28;;;;;;;9.85;5.38;;;;;;;;;;4985945;28;20457;-70
2022/06/19 03:53:55;;;;;;;10.70;4.70;;;;;;;;;;4990590;28;20037;-75
2022/06/19 03:56:28;;;;;;;6.60;5.32;;;;;;;;;;4982254;28;20014;-72
2022/06/19 03:58:55;;;;;;;8.25;5.75;;;;;;;;;;4990300;28;20117;-72
2022/06/19 04:01:24;;;;;;;12.20;6.72;;;;;;;;;;4990961;28;20084;-70
2022/06/19 04:03:52;;;;;;;8.98;6.32;;;;;;;;;;4988612;28;20110;-75
2022/06/19 04:06:20;;;;;;;12.02;5.90;;;;;;;;;;4990741;28;20030;-73
2022/06/19 04:08:46;;;;;;;7.25;5.75;;;;;;;;;;4983368;28;20125;-72
2022/06/19 04:11:14;;;;;;;7.63;5.13;;;;;;;;;;4990477;28;20120;-74
2022/06/19 04:13:40;;;;;;;8.65;5.32;;;;;;;;;;4990217;28;20041;-71
2022/06/19 04:16:08;;;;;;;8.18;4.70;;;;;;;;;;4989819;28;20527;-75
2022/06/19 04:18:34;;;;;;;10.98;5.57;;;;;;;;;;4989275;28;20386;-73
2022/06/19 04:21:01;;;;;;;7.90;4.95;;;;;;;;;;4986517;28;20535;-75
2022/06/19 04:23:28;;;;;;;10.38;5.13;;;;;;;;;;4989716;28;20046;-74
2022/06/19 04:25:54;;;;;;;8.82;4.47;;;;;;;;;;4984854;28;20088;-73
2022/06/19 04:28:24;;;;;;;7.03;4.80;;;;;;;;;;4990321;28;20069;-74
2022/06/19 04:30:51;;;;;;;11.18;4.65;;;;;;;;;;4989527;28;20109;-72
2022/06/19 04:33:18;;;;;;;8.55;4.63;;;;;;;;;;4988521;28;20050;-70
2022/06/19 04:35:45;;;;;;;7.13;5.00;;;;;;;;;;4985980;28;20697;-70
2022/06/19 04:38:11;;;;;;;6.07;4.70;;;;;;;;;;4989858;28;20046;-70
2022/06/19 04:40:38;;;;;;;8.32;4.15;;;;;;;;;;4990020;28;20100;-70
2022/06/19 04:43:04;;;;;;;5.15;4.13;;;;;;;;;;4990205;28;20034;-73
2022/06/19 04:45:31;;;;;;;7.55;3.83;;;;;;;;;;4982675;28;20043;-73
2022/06/19 04:47:57;;;;;;;5.30;3.85;;;;;;;;;;4990885;28;20354;-75
2022/06/19 04:50:23;;;;;;;8.02;3.85;;;;;;;;;;4971896;28;20037;-71
2022/06/19 04:52:49;;;;;;;6.30;3.90;;;;;;;;;;4976366;28;20027;-76
2022/06/19 04:55:16;;;;;;;5.47;3.58;;;;;;;;;;4976630;28;20034;-76
2022/06/19 04:57:42;;;;;;;6.47;3.72;;;;;;;;;;4976385;28;20429;-73
2022/06/19 05:00:13;;;;;;;6.07;3.30;;;;;;;;;;4976666;28;20026;-74
2022/06/19 05:02:39;;;;;;;3.85;3.45;;;;;;;;;;4986129;28;20069;-75
2022/06/19 05:05:06;;;;;;;4.18;3.17;;;;;;;;;;4982243;28;20023;-73
2022/06/19 05:07:33;;;;;;;3.78;3.35;;;;;;;;;;4976751;28;20037;-71
2022/06/19 05:10:00;;;;;;;6.93;3.25;;;;;;;;;;4976851;28;20034;-70
2022/06/19 05:12:26;;;;;;;4.85;3.03;;;;;;;;;;4976730;28;20049;-73
2022/06/19 05:14:53;;;;;;;4.18;3.13;;;;;;;;;;4977538;28;20034;-71
2022/06/19 05:17:19;;;;;;;5.10;3.10;;;;;;;;;;4976568;28;20039;-72
2022/06/19 05:19:45;;;;;;;4.65;3.42;;;;;;;;;;4987151;28;20049;-71
2022/06/19 05:22:11;;;;;;;4.65;3.42;;;;;;;;;;4995763;28;20030;-73
2022/06/19 05:24:37;;;;;;;7.32;3.10;;;;;;;;;;4996448;28;20088;-70
2022/06/19 05:27:09;;;;;;;5.60;3.15;;;;;;;;;;4995849;28;20552;-72
2022/06/19 05:29:36;;;;;;;4.25;3.00;;;;;;;;;;4995756;28;20043;-70
2022/06/19 05:32:04;;;;;;;3.30;3.00;;;;;;;;;;4995536;28;20421;-70
2022/06/19 05:34:34;;;;;;;4.38;2.90;;;;;;;;;;4995478;28;20113;-71
2022/06/19 05:37:01;;;;;;;4.03;2.83;;;;;;;;;;4995839;28;20057;-70
2022/06/19 05:39:27;;;;;;;3.63;2.63;;;;;;;;;;4995705;28;20512;-70
2022/06/19 05:41:57;;;;;;;6.93;3.03;;;;;;;;;;4995363;28;20117;-71
2022/06/19 05:44:23;;;;;;;4.00;2.88;;;;;;;;;;4995415;28;20030;-71
2022/06/19 05:46:50;;;;;;;3.00;2.55;;;;;;;;;;4995278;28;20050;-70
2022/06/19 05:49:16;;;;;;;3.38;2.80;;;;;;;;;;4995333;28;20069;-72
2022/06/19 05:51:42;;;;;;;3.22;2.70;;;;;;;;;;4995391;28;20113;-77
2022/06/19 05:54:09;;;;;;;4.00;3.00;;;;;;;;;;4994035;28;20038;-76
2022/06/19 05:56:35;;;;;;;3.60;2.60;;;;;;;;;;5002215;28;20049;-77
2022/06/19 05:59:01;;;;;;;4.53;3.13;;;;;;;;;;4999356;28;20026;-75
2022/06/19 06:01:30;;;;;;;3.17;2.85;;;;;;;;;;4994919;28;20429;-74
2022/06/19 06:03:57;;;;;;;3.42;3.13;;;;;;;;;;4994673;28;20030;-75
2022/06/19 06:06:25;;;;;;;3.42;3.08;;;;;;;;;;4995148;28;20121;-74
2022/06/19 06:08:52;;;;;;;4.78;2.67;;;;;;;;;;4995033;28;20033;-74
2022/06/19 06:11:19;;;;;;;4.70;2.95;;;;;;;;;;4994967;28;20034;-78
2022/06/19 06:13:45;;;;;;;4.15;3.28;;;;;;;;;;4994749;28;20510;-72
2022/06/19 06:16:13;;;;;;;3.67;2.80;;;;;;;;;;4992973;28;20066;-74
2022/06/19 06:18:39;;;;;;;3.33;2.75;;;;;;;;;;4975375;28;20066;-72
2022/06/19 06:21:08;;;;;;;4.28;2.90;;;;;;;;;;4976222;28;20552;-70
2022/06/19 06:23:34;;;;;;;4.15;2.95;;;;;;;;;;4976358;28;20026;-70
2022/06/19 06:26:06;;;;;;;5.55;3.20;;;;;;;;;;4977100;28;20525;-69
2022/06/19 06:28:32;;;;;;;3.20;2.90;;;;;;;;;;4975598;28;20030;-70
2022/06/19 06:30:59;;;;;;;2.95;2.60;;;;;;;;;;4976106;28;20466;-68
2022/06/19 06:33:25;;;;;;;5.88;3.05;;;;;;;;;;4975646;28;20050;-71
2022/06/19 06:35:51;;;;;;;3.58;2.83;;;;;;;;;;4975814;28;20089;-70
2022/06/19 06:38:17;;;;;;;3.58;2.67;;;;;;;;;;4974881;28;20042;-72
2022/06/19 06:40:43;;;;;;;4.75;2.33;;;;;;;;;;4974944;28;20098;-71
2022/06/19 06:43:09;;;;;;;3.17;2.20;;;;;;;;;;4974576;28;20065;-70
2022/06/19 06:45:34;;;;;;;5.72;2.38;;;;;;;;;;4973697;28;20508;-70
2022/06/19 06:48:00;;;;;;;3.42;2.30;;;;;;;;;;4974818;28;20046;-69
2022/06/19 06:50:27;;;;;;;2.90;2.58;;;;;;;;;;4974677;28;20027;-70
2022/06/19 06:52:53;;;;;;;6.35;2.70;;;;;;;;;;4974858;28;20420;-71
2022/06/19 06:55:18;;;;;;;2.80;2.30;;;;;;;;;;4974794;28;20102;-71
2022/06/19 06:57:44;;;;;;;5.65;2.40;;;;;;;;;;4974641;28;20051;-75
2022/06/19 07:00:15;;;;;;;5.07;2.53;;;;;;;;;;4974336;28;20026;-72
2022/06/19 07:02:41;;;;;;;4.80;2.58;;;;;;;;;;4974162;28;20529;-71
2022/06/19 07:05:07;;;;;;;3.17;2.35;;;;;;;;;;4982492;28;20121;-71
2022/06/19 07:07:33;;;;;;;4.97;2.22;;;;;;;;;;4974503;28;20069;-74
2022/06/19 07:09:59;;;;;;;3.13;2.50;;;;;;;;;;4974988;28;20054;-73
2022/06/19 07:12:25;;;;;;;4.20;2.50;;;;;;;;;;4974805;28;20482;-74
2022/06/19 07:14:51;;;;;;;3.58;2.10;;;;;;;;;;4973611;28;20058;-70
2022/06/19 07:17:18;;;;;;;3.42;2.15;;;;;;;;;;4974597;28;20107;-72
2022/06/19 07:19:44;;;;;;;3.47;2.00;;;;;;;;;;4976290;28;20034;-73
2022/06/19 07:22:14;;;;;;;5.70;2.00;;;;;;;;;;4976658;28;20023;-72
2022/06/19 07:24:41;;;;;;;3.38;2.08;;;;;;;;;;4982108;28;20126;-72
2022/06/19 07:27:07;;;;;;;2.30;1.75;;;;;;;;;;4973958;28;20022;-70
2022/06/19 07:29:34;;;;;;;2.63;1.92;;;;;;;;;;4974096;28;20042;-75
2022/06/19 07:31:59;;;;;;;2.78;1.90;;;;;;;;;;4983199;28;20053;-70
2022/06/19 07:34:25;;;;;;;3.28;2.00;;;;;;;;;;4984838;28;20552;-71
2022/06/19 07:36:51;;;;;;;3.60;2.15;;;;;;;;;;4984691;28;20114;-73
2022/06/19 07:39:17;;;;;;;3.20;1.80;;;;;;;;;;4982979;28;20034;-69
2022/06/19 07:41:43;;;;;;;2.72;1.73;;;;;;;;;;4979254;28;20049;-71
2022/06/19 07:44:08;;;;;;;2.22;1.65;;;;;;;;;;4974134;28;20035;-76
2022/06/19 07:50:09;;;;;;;3.95;2.03;;;;;;;;;;4975080;28;20089;-71
2022/06/19 07:52:04;;;;;;;2.85;1.95;;;;;;;;;;4978419;28;20377;-71
2022/06/19 07:54:31;;;;;;;2.90;1.80;;;;;;;;;;4973729;28;20027;-70
2022/06/19 07:56:57;;;;;;;3.22;1.90;;;;;;;;;;4972745;28;20034;-76
2022/06/19 07:59:23;;;;;;;5.68;2.60;;;;;;;;;;4992528;28;20125;-70
2022/06/19 08:01:49;;;;;;;4.32;2.40;;;;;;;;;;4992779;28;20062;-72
2022/06/19 08:04:14;;;;;;;2.47;1.77;;;;;;;;;;4993055;28;20029;-72
2022/06/19 08:06:40;;;;;;;4.57;1.70;;;;;;;;;;4992662;28;20034;-73
2022/06/19 08:09:06;;;;;;;6.68;2.30;;;;;;;;;;4991411;28;20084;-71
2022/06/19 08:11:32;;;;;;;2.58;2.00;;;;;;;;;;4991085;28;20062;-73
2022/06/19 08:13:58;;;;;;;3.60;1.70;;;;;;;;;;4983136;28;20543;-73
2022/06/19 08:16:24;;;;;;;2.88;1.90;;;;;;;;;;4973333;28;20061;-74
2022/06/19 08:18:50;;;;;;;3.45;1.90;;;;;;;;;;4972990;28;20074;-72
2022/06/19 08:21:16;;;;;;;3.83;1.90;;;;;;;;;;4976722;28;20035;-71
2022/06/19 08:23:41;;;;;;;2.08;1.67;;;;;;;;;;4981435;28;20018;-72
2022/06/19 08:26:07;;;;;;;3.35;2.10;;;;;;;;;;4983338;28;20517;-73
2022/06/19 08:29:18;;;;;;;2.92;1.80;;;;;;;;;;4994646;28;20023;-73
2022/06/19 08:31:19;;;;;;;2.97;2.00;;;;;;;;;;4994115;28;20141;-70
2022/06/19 08:33:45;;;;;;;4.13;2.15;;;;;;;;;;4995352;28;20057;-71
2022/06/19 08:36:12;;;;;;;3.60;2.00;;;;;;;;;;4995489;28;20058;-72
2022/06/19 08:38:43;;;;;;;2.40;1.80;;;;;;;;;;4994828;28;20032;-75
2022/06/19 08:41:12;;;;;;;1.92;1.60;;;;;;;;;;4992969;28;20468;-71
2022/06/19 08:43:56;;;;;;;3.33;1.80;;;;;;;;;;4995189;28;20469;-71
2022/06/19 08:46:47;;;;;;;2.08;1.27;;;;;;;;;;4988661;28;20497;-71
2022/06/19 08:49:32;;;;;;;1.90;1.35;;;;;;;;;;4976337;28;20034;-73
2022/06/19 08:52:22;;;;;;;2.22;1.60;;;;;;;;;;4976471;28;20050;-72
2022/06/19 08:54:58;;;;;;;3.40;1.70;;;;;;;;;;4977461;28;20084;-71
2022/06/19 08:57:39;;;;;;;3.95;1.90;;;;;;;;;;4976276;28;20035;-71
2022/06/19 09:00:12;;;;;;;3.58;1.70;;;;;;;;;;4976659;28;20031;-74
2022/06/19 09:02:41;;;;;;;;;;;;;;;;;;4986988;28;20039;-72
2022/06/19 09:05:47;;;;;;;4.78;1.80;;;;;;;;;;4994934;28;19918;-71
2022/06/19 09:08:42;;;;;;;4.03;1.90;;;;;;;;;;4995719;28;20121;-71
2022/06/19 09:11:35;;;;;;;3.60;1.70;;;;;;;;;;4986126;28;20370;-71
2022/06/19 09:14:35;;;;;;;2.78;1.85;;;;;;;;;;4976139;28;20041;-73
2022/06/19 09:17:10;;;;;;;3.03;1.80;;;;;;;;;;4984724;28;20494;-72
2022/06/19 09:19:52;;;;;;;2.05;1.40;;;;;;;;;;4975809;28;20031;-74
2022/06/19 09:22:32;;;;;;;2.30;1.50;;;;;;;;;;4982338;28;20031;-73
2022/06/19 09:25:52;;;;;;;4.43;1.50;;;;;;;;;;4995081;28;20034;-72
2022/06/19 09:28:26;;;;;;;3.15;1.42;;;;;;;;;;4976279;28;20055;-74
2022/06/19 09:31:29;;;;;;;2.15;1.52;;;;;;;;;;4975755;28;20398;-72
2022/06/19 09:34:05;;;;;;;4.70;1.70;;;;;;;;;;4976164;28;20509;-74
2022/06/19 09:36:41;;;;;;;3.17;1.45;;;;;;;;;;4974495;28;20089;-74
2022/06/19 09:39:16;;;;;;;3.33;1.70;;;;;;;;;;4974954;28;20098;-75
2022/06/19 09:41:50;;;;;;;6.07;2.47;;;;;;;;;;4975678;28;20367;-70
2022/06/19 09:44:31;;;;;;;4.93;1.73;;;;;;;;;;4975761;28;20453;-73
2022/06/19 09:47:28;;;;;;;5.07;1.80;;;;;;;;;;4975599;28;20390;-73
2022/06/19 09:50:00;;;;;;;4.30;1.80;;;;;;;;;;4978538;28;20491;-73
2022/06/19 09:52:36;;;;;;;2.35;1.70;;;;;;;;;;4994110;28;20034;-72
2022/06/19 09:55:18;;;;;;;4.25;1.70;;;;;;;;;;4989668;28;20034;-71
2022/06/19 09:57:54;;;;;;;3.15;2.13;;;;;;;;;;4974708;28;20037;-72
2022/06/19 10:00:24;;;;;;;5.43;3.90;;;;;;;;;;4979769;28;20482;-72
2022/06/19 10:03:17;;;;;;;2.40;1.48;;;;;;;;;;5014193;28;20065;-73
2022/06/19 10:05:51;;;;;;;4.10;1.75;;;;;;;;;;5014131;28;20069;-72
2022/06/19 10:08:17;;;;;;;;;;;;;;;;;;5014485;28;20473;-70
2022/06/19 10:10:59;;;;;;;3.20;1.50;;;;;;;;;;5013802;28;19929;-70
2022/06/19 10:13:34;;;;;;;3.22;1.83;;;;;;;;;;5013629;28;20109;-71
2022/06/19 10:16:02;;;;;;;4.15;2.00;;;;;;;;;;5013603;28;20473;-75
2022/06/19 10:18:35;;;;;;;6.18;1.88;;;;;;;;;;5012213;28;20030;-73
2022/06/19 10:22:13;;;;;;;5.20;4.00;;;;;;;;;;5013809;28;20034;-72
2022/06/19 10:24:10;;;;;;;4.55;3.50;;;;;;;;;;5014155;28;20030;-72
2022/06/19 10:27:09;;;;;;;2.88;1.70;;;;;;;;;;5014352;28;20045;-75
2022/06/19 10:30:06;;;;;;;2.30;1.40;;;;;;;;;;5013919;28;20037;-74
2022/06/19 10:32:35;;;;;;;5.50;1.50;;;;;;;;;;5014013;28;20046;-77
2022/06/19 10:35:15;;;;;;;2.50;1.80;;;;;;;;;;5013938;28;20041;-70
2022/06/19 10:37:55;;;;;;;2.08;1.45;;;;;;;;;;5013703;28;20045;-72
2022/06/19 10:40:42;;;;;;;2.83;1.52;;;;;;;;;;5005050;28;20109;-72
2022/06/19 10:43:32;;;;;;;2.83;1.58;;;;;;;;;;4992604;28;20478;-76
2022/06/19 10:46:04;;;;;;;2.80;1.35;;;;;;;;;;4992714;28;20042;-71
2022/06/19 10:49:09;;;;;;;5.15;1.90;;;;;;;;;;4994259;28;20389;-72
2022/06/19 10:51:40;;;;;;;5.07;1.48;;;;;;;;;;4992912;28;20077;-72
2022/06/19 10:54:23;;;;;;;2.40;1.50;;;;;;;;;;4993793;28;20035;-74
2022/06/19 10:57:05;;;;;;;9.73;6.38;;;;;;;;;;4994045;28;20042;-71
2022/06/19 10:59:31;;;;;;;21.52;15.38;;;;;;;;;;4993902;28;20074;-72
2022/06/19 11:05:32;;;;;;;;;;;;;;;;;;4995297;28;20053;-71
2022/06/19 11:07:58;;;;;;;1.58;1.25;;;;;;;;;;4994295;28;19997;-73
2022/06/19 11:10:37;;;;;;;2.55;1.65;;;;;;;;;;4993585;28;20023;-73
2022/06/19 11:13:05;;;;;;;5.07;3.15;;;;;;;;;;4993805;28;20431;-72
2022/06/19 11:15:41;;;;;;;4.65;2.33;;;;;;;;;;4994043;28;20083;-73
2022/06/19 11:18:07;;;;;;;2.17;1.30;;;;;;;;;;4993631;28;20034;-75
2022/06/19 11:20:33;;;;;;;2.50;1.70;;;;;;;;;;4993834;28;20030;-75
2022/06/19 11:23:18;;;;;;;1.90;1.20;;;;;;;;;;4993767;28;20045;-74
2022/06/19 11:26:06;;;;;;;1.80;1.08;;;;;;;;;;4996321;28;20039;-74
2022/06/19 11:28:53;;;;;;;2.53;1.35;;;;;;;;;;4998955;28;20157;-74
2022/06/19 11:31:22;;;;;;;9.70;2.90;;;;;;;;;;4993681;28;20038;-73
2022/06/19 11:33:51;;;;;;;2.25;1.25;;;;;;;;;;4993398;28;20046;-76
2022/06/19 11:36:46;;;;;;;3.22;1.45;;;;;;;;;;4993466;28;20065;-76
2022/06/19 11:39:36;;;;;;;2.75;1.75;;;;;;;;;;4992814;28;20054;-75
2022/06/19 11:42:38;;;;;;;12.95;8.60;;;;;;;;;;4993302;28;20038;-74
2022/06/19 11:45:14;;;;;;;3.40;1.30;;;;;;;;;;4993251;28;20485;-75
2022/06/19 11:47:42;;;;;;;1.30;1.17;;;;;;;;;;4993432;28;20034;-76
2022/06/19 11:50:24;;;;;;;6.30;3.25;;;;;;;;;;4993464;28;20034;-75
2022/06/19 11:52:57;;;;;;;1.88;1.25;;;;;;;;;;4993476;28;20040;-72
2022/06/19 11:55:28;;;;;;;;;;;;;;;;;;4993658;28;20105;-75
2022/06/19 11:58:01;;;;;;;2.47;1.40;;;;;;;;;;4993299;28;19924;-76
2022/06/19 12:00:32;;;;;;;2.22;1.10;;;;;;;;;;4993740;28;20030;-74
2022/06/19 12:03:03;;;;;;;3.22;1.30;;;;;;;;;;4997268;28;20062;-73
2022/06/19 12:05:40;;;;;;;1.90;1.20;;;;;;;;;;4997128;28;20030;-73
2022/06/19 12:08:20;;;;;;;4.00;1.20;;;;;;;;;;4997275;28;20034;-74
2022/06/19 12:10:53;;;;;;;4.93;1.50;;;;;;;;;;4997095;28;20034;-75
2022/06/19 12:13:23;;;;;;;3.42;1.98;;;;;;;;;;4997062;28;20121;-71
2022/06/19 12:15:56;;;;;;;13.27;7.63;;;;;;;;;;4997159;28;20386;-74
2022/06/19 12:18:22;;;;;;;5.72;4.45;;;;;;;;;;4997108;28;20069;-71
2022/06/19 12:21:02;;;;;;;3.25;1.40;;;;;;;;;;4997127;28;20031;-70
2022/06/19 12:23:37;;;;;;;2.60;1.75;;;;;;;;;;4997036;28;20041;-71
2022/06/19 12:26:08;;;;;;;4.95;1.40;;;;;;;;;;4996773;28;20113;-71
2022/06/19 12:28:40;;;;;;;3.20;1.42;;;;;;;;;;4996953;28;20026;-71
2022/06/19 12:31:11;;;;;;;1.67;1.25;;;;;;;;;;4996726;28;20466;-71
2022/06/19 12:33:51;;;;;;;1.63;1.30;;;;;;;;;;4996721;28;20047;-70
2022/06/19 12:36:36;;;;;;;6.57;4.70;;;;;;;;;;4996705;28;20093;-75
2022/06/19 12:39:06;;;;;;;2.30;1.40;;;;;;;;;;4996429;28;20042;-72
2022/06/19 12:41:46;;;;;;;3.78;1.30;;;;;;;;;;4996423;28;20026;-73
2022/06/19 12:44:21;;;;;;;3.75;1.60;;;;;;;;;;4996638;28;20053;-72
2022/06/19 12:47:19;;;;;;;18.80;14.55;;;;;;;;;;4995998;28;20046;-73
2022/06/19 12:50:22;;;;;;;8.77;6.10;;;;;;;;;;4994989;28;20054;-74
2022/06/19 12:53:09;;;;;;;3.42;1.20;;;;;;;;;;4996528;28;20046;-75
2022/06/19 12:55:57;;;;;;;3.17;1.20;;;;;;;;;;4996668;28;20478;-70
2022/06/19 12:58:41;;;;;;;1.80;1.42;;;;;;;;;;4996623;28;20113;-72
2022/06/19 13:01:10;;;;;;;4.38;1.33;;;;;;;;;;4995926;28;20035;-73
2022/06/19 13:03:45;;;;;;;3.05;1.30;;;;;;;;;;4996134;28;20061;-71
2022/06/19 13:06:36;;;;;;;3.80;1.48;;;;;;;;;;4996098;28;20436;-74
2022/06/19 13:09:29;;;;;;;3.10;1.35;;;;;;;;;;4998412;28;20038;-73
2022/06/19 13:12:19;;;;;;;2.75;1.20;;;;;;;;;;5014802;28;20038;-74
2022/06/19 13:15:13;;;;;;;1.83;1.25;;;;;;;;;;5014436;28;20026;-74
2022/06/19 13:17:50;;;;;;;2.88;1.20;;;;;;;;;;5010437;28;20041;-76
2022/06/19 13:20:31;;;;;;;1.98;1.20;;;;;;;;;;5013223;28;20038;-73
2022/06/19 13:23:08;;;;;;;2.83;1.25;;;;;;;;;;5011536;28;20034;-71
2022/06/19 13:25:44;;;;;;;1.50;1.20;;;;;;;;;;5015204;28;20034;-72
2022/06/19 13:28:09;;;;;;;2.95;1.20;;;;;;;;;;5014206;28;20059;-70
2022/06/19 13:30:54;;;;;;;3.15;1.10;;;;;;;;;;5015146;28;20392;-71
2022/06/19 13:33:57;;;;;;;3.85;1.35;;;;;;;;;;5015418;28;20132;-73
2022/06/19 13:36:54;;;;;;;3.03;1.45;;;;;;;;;;5015452;28;20111;-76
2022/06/19 13:39:47;;;;;;;3.97;1.40;;;;;;;;;;5014901;28;20045;-72
2022/06/19 13:42:42;;;;;;;2.30;1.30;;;;;;;;;;5015252;28;20392;-72
2022/06/19 13:45:27;;;;;;;3.15;1.10;;;;;;;;;;5015132;28;20040;-71
2022/06/19 13:48:02;;;;;;;3.00;1.20;;;;;;;;;;5014891;28;20045;-71
2022/06/19 13:50:38;;;;;;;4.45;1.20;;;;;;;;;;5014795;28;20092;-72
2022/06/19 13:53:53;;;;;;;1.50;1.20;;;;;;;;;;5015104;28;20030;-73
2022/06/19 13:56:35;;;;;;;1.65;0.95;;;;;;;;;;5005917;28;20042;-75
2022/06/19 13:59:07;;;;;;;2.23;1.23;;;;;;;;;;5014433;28;20074;-74
2022/06/19 14:02:02;;;;;;;2.92;1.10;;;;;;;;;;5013218;28;20275;-71
2022/06/19 14:04:45;;;;;;;3.03;1.27;;;;;;;;;;5000799;28;20439;-75
2022/06/19 14:07:35;;;;;;;4.13;1.33;;;;;;;;;;4994962;28;20045;-73
2022/06/19 14:10:24;;;;;;;2.70;1.13;;;;;;;;;;4994831;28;20038;-71
2022/06/19 14:13:08;;;;;;;2.75;1.10;;;;;;;;;;4995156;28;20469;-75
2022/06/19 14:15:55;;;;;;;2.28;1.20;;;;;;;;;;4994893;28;20549;-74
2022/06/19 14:18:37;;;;;;;1.10;1.00;;;;;;;;;;4994603;28;20121;-74
2022/06/19 14:21:41;;;;;;;1.45;1.00;;;;;;;;;;4994817;28;20056;-72
2022/06/19 14:24:25;;;;;;;2.33;1.30;;;;;;;;;;4994360;28;20031;-69
2022/06/19 14:27:05;;;;;;;1.70;1.30;;;;;;;;;;4994515;28;20030;-69
2022/06/19 14:29:34;;;;;;;2.55;1.20;;;;;;;;;;4989822;28;20026;-75
2022/06/19 14:32:01;;;;;;;1.35;1.10;;;;;;;;;;4991424;28;20023;-70
2022/06/19 14:34:48;;;;;;;5.15;1.00;;;;;;;;;;4991655;28;20042;-70
2022/06/19 14:37:20;;;;;;;3.95;1.25;;;;;;;;;;4991315;28;20485;-71
2022/06/19 14:39:47;;;;;;;1.30;1.10;;;;;;;;;;4991091;28;20112;-69
2022/06/19 14:42:13;;;;;;;3.88;1.20;;;;;;;;;;4991271;28;20030;-69
2022/06/19 14:44:50;;;;;;;3.60;1.33;;;;;;;;;;4992491;28;20094;-69
2022/06/19 14:47:33;;;;;;;6.00;1.17;;;;;;;;;;4994016;28;20088;-71
2022/06/19 14:50:38;;;;;;;2.58;1.25;;;;;;;;;;4992343;28;20397;-71
2022/06/19 14:53:41;;;;;;;1.55;1.00;;;;;;;;;;4981116;28;20800;-73
2022/06/19 14:56:14;;;;;;;1.63;1.00;;;;;;;;;;4990619;28;20030;-72
2022/06/19 14:58:44;;;;;;;2.85;1.10;;;;;;;;;;4990940;28;20070;-74
2022/06/19 15:01:24;;;;;;;2.95;1.45;;;;;;;;;;4990998;28;20033;-75
2022/06/19 15:04:07;;;;;;;1.55;1.10;;;;;;;;;;4991290;28;20030;-76
2022/06/19 15:06:48;;;;;;;2.42;1.20;;;;;;;;;;4990936;28;20037;-72
2022/06/19 15:09:22;;;;;;;2.38;1.30;;;;;;;;;;4992330;28;20093;-72
2022/06/19 15:11:49;;;;;;;2.55;1.20;;;;;;;;;;4992946;28;20038;-73
2022/06/19 15:14:25;;;;;;;1.95;1.15;;;;;;;;;;4993318;28;20023;-75
2022/06/19 15:16:58;;;;;;;2.17;0.98;;;;;;;;;;4993409;28;20030;-71
2022/06/19 15:19:40;;;;;;;2.80;1.23;;;;;;;;;;4993691;28;20156;-72
2022/06/19 15:22:28;;;;;;;2.58;1.20;;;;;;;;;;4994227;28;20379;-70
2022/06/19 15:24:54;;;;;;;3.03;1.30;;;;;;;;;;4993401;28;20049;-71
2022/06/19 15:27:23;;;;;;;2.85;1.20;;;;;;;;;;4993563;28;20018;-71